sensor_id;sensor_type;location;lat;lon;timestamp;pressure;altitude;pressure_sealevel;temperature;humidity
67987;BME280;54767;53.800;15.956;2023-04-28T00:00:35;100693.02;;;1.78;64.16
67987;BME280;54767;53.800;15.956;2023-04-28T00:03:16;100695.15;;;1.79;64.19
67987;BME280;54767;53.800;15.956;2023-04-28T00:05:44;100695.98;;;1.79;64.33
67987;BME280;54767;53.800;15.956;2023-04-28T00:08:12;100693.23;;;1.79;64.29
67987;BME280;54767;53.800;15.956;2023-04-28T00:10:39;100692.47;;;1.78;64.32
67987;BME280;54767;53.800;15.956;2023-04-28T00:13:06;100691.66;;;1.75;64.58
67987;BME280;54767;53.800;15.956;2023-04-28T00:15:32;100691.88;;;1.72;64.36
67987;BME280;54767;53.800;15.956;2023-04-28T00:17:59;100692.27;;;1.69;64.33
67987;BME280;54767;53.800;15.956;2023-04-28T00:20:26;100686.95;;;1.66;64.58
67987;BME280;54767;53.800;15.956;2023-04-28T00:22:53;100685.23;;;1.63;64.41
67987;BME280;54767;53.800;15.956;2023-04-28T00:25:19;100683.12;;;1.58;64.46
67987;BME280;54767;53.800;15.956;2023-04-28T00:27:46;100684.80;;;1.57;64.52
67987;BME280;54767;53.800;15.956;2023-04-28T00:30:13;100685.20;;;1.54;64.53
67987;BME280;54767;53.800;15.956;2023-04-28T00:32:40;100689.35;;;1.54;64.63
67987;BME280;54767;53.800;15.956;2023-04-28T00:35:07;100689.21;;;1.55;64.74
67987;BME280;54767;53.800;15.956;2023-04-28T00:37:37;100689.39;;;1.55;64.58
67987;BME280;54767;53.800;15.956;2023-04-28T00:40:05;100683.83;;;1.54;64.71
67987;BME280;54767;53.800;15.956;2023-04-28T00:42:32;100682.40;;;1.53;64.92
67987;BME280;54767;53.800;15.956;2023-04-28T00:44:58;100684.75;;;1.52;64.81
67987;BME280;54767;53.800;15.956;2023-04-28T00:47:32;100684.16;;;1.50;64.88
67987;BME280;54767;53.800;15.956;2023-04-28T00:50:00;100684.08;;;1.48;64.95
67987;BME280;54767;53.800;15.956;2023-04-28T00:52:28;100680.53;;;1.46;65.26
67987;BME280;54767;53.800;15.956;2023-04-28T00:54:55;100678.19;;;1.44;65.03
67987;BME280;54767;53.800;15.956;2023-04-28T00:57:23;100676.02;;;1.42;65.14
67987;BME280;54767;53.800;15.956;2023-04-28T00:59:49;100672.86;;;1.41;65.21
67987;BME280;54767;53.800;15.956;2023-04-28T01:02:16;100675.27;;;1.41;65.40
67987;BME280;54767;53.800;15.956;2023-04-28T01:04:44;100669.15;;;1.43;65.13
67987;BME280;54767;53.800;15.956;2023-04-28T01:07:11;100671.83;;;1.44;65.15
67987;BME280;54767;53.800;15.956;2023-04-28T01:09:38;100670.81;;;1.45;65.34
67987;BME280;54767;53.800;15.956;2023-04-28T01:12:05;100670.11;;;1.45;65.19
67987;BME280;54767;53.800;15.956;2023-04-28T01:14:33;100675.95;;;1.44;65.45
67987;BME280;54767;53.800;15.956;2023-04-28T01:17:00;100674.81;;;1.42;65.49
67987;BME280;54767;53.800;15.956;2023-04-28T01:19:27;100674.90;;;1.40;65.65
67987;BME280;54767;53.800;15.956;2023-04-28T01:21:55;100678.29;;;1.39;65.38
67987;BME280;54767;53.800;15.956;2023-04-28T01:24:22;100672.32;;;1.37;65.38
67987;BME280;54767;53.800;15.956;2023-04-28T01:26:48;100677.29;;;1.35;65.33
67987;BME280;54767;53.800;15.956;2023-04-28T01:29:15;100675.38;;;1.35;65.54
67987;BME280;54767;53.800;15.956;2023-04-28T01:31:42;100670.46;;;1.38;65.58
67987;BME280;54767;53.800;15.956;2023-04-28T01:34:09;100671.27;;;1.40;65.85
67987;BME280;54767;53.800;15.956;2023-04-28T01:36:35;100670.45;;;1.44;65.93
67987;BME280;54767;53.800;15.956;2023-04-28T01:39:04;100666.06;;;1.47;65.88
67987;BME280;54767;53.800;15.956;2023-04-28T01:41:31;100668.91;;;1.48;66.11
67987;BME280;54767;53.800;15.956;2023-04-28T01:43:59;100664.48;;;1.50;66.24
67987;BME280;54767;53.800;15.956;2023-04-28T01:46:26;100661.06;;;1.51;66.23
67987;BME280;54767;53.800;15.956;2023-04-28T01:48:53;100663.63;;;1.50;66.12
67987;BME280;54767;53.800;15.956;2023-04-28T01:51:20;100663.30;;;1.51;66.51
67987;BME280;54767;53.800;15.956;2023-04-28T01:53:47;100662.42;;;1.50;66.24
67987;BME280;54767;53.800;15.956;2023-04-28T01:56:13;100664.03;;;1.51;66.31
67987;BME280;54767;53.800;15.956;2023-04-28T01:58:40;100667.07;;;1.54;66.37
67987;BME280;54767;53.800;15.956;2023-04-28T02:01:07;100663.29;;;1.57;66.38
67987;BME280;54767;53.800;15.956;2023-04-28T02:03:34;100665.70;;;1.62;66.32
67987;BME280;54767;53.800;15.956;2023-04-28T02:06:01;100662.86;;;1.64;66.37
67987;BME280;54767;53.800;15.956;2023-04-28T02:08:27;100662.62;;;1.66;66.60
67987;BME280;54767;53.800;15.956;2023-04-28T02:10:54;100662.16;;;1.68;66.62
67987;BME280;54767;53.800;15.956;2023-04-28T02:13:23;100657.71;;;1.69;66.73
67987;BME280;54767;53.800;15.956;2023-04-28T02:15:50;100648.39;;;1.68;66.82
67987;BME280;54767;53.800;15.956;2023-04-28T02:18:17;100651.98;;;1.68;66.88
67987;BME280;54767;53.800;15.956;2023-04-28T02:20:43;100652.51;;;1.68;66.85
67987;BME280;54767;53.800;15.956;2023-04-28T02:23:10;100660.38;;;1.70;66.69
67987;BME280;54767;53.800;15.956;2023-04-28T02:25:37;100657.73;;;1.73;66.50
67987;BME280;54767;53.800;15.956;2023-04-28T02:28:04;100655.33;;;1.76;66.53
67987;BME280;54767;53.800;15.956;2023-04-28T02:30:30;100656.65;;;1.79;66.56
67987;BME280;54767;53.800;15.956;2023-04-28T02:32:57;100656.35;;;1.80;66.64
67987;BME280;54767;53.800;15.956;2023-04-28T02:35:24;100656.08;;;1.82;66.53
67987;BME280;54767;53.800;15.956;2023-04-28T02:37:51;100651.89;;;1.81;66.65
67987;BME280;54767;53.800;15.956;2023-04-28T02:40:18;100654.45;;;1.80;66.75
67987;BME280;54767;53.800;15.956;2023-04-28T02:42:45;100655.31;;;1.80;66.93
67987;BME280;54767;53.800;15.956;2023-04-28T02:45:12;100657.38;;;1.80;67.07
67987;BME280;54767;53.800;15.956;2023-04-28T02:47:39;100658.85;;;1.82;66.95
67987;BME280;54767;53.800;15.956;2023-04-28T02:50:06;100658.91;;;1.84;67.14
67987;BME280;54767;53.800;15.956;2023-04-28T02:52:33;100663.07;;;1.88;66.86
67987;BME280;54767;53.800;15.956;2023-04-28T02:55:00;100664.10;;;1.92;66.78
67987;BME280;54767;53.800;15.956;2023-04-28T02:57:29;100660.77;;;1.94;66.81
67987;BME280;54767;53.800;15.956;2023-04-28T02:59:56;100659.82;;;1.96;66.87
67987;BME280;54767;53.800;15.956;2023-04-28T03:02:22;100656.41;;;1.97;66.84
67987;BME280;54767;53.800;15.956;2023-04-28T03:04:49;100658.34;;;1.98;67.11
67987;BME280;54767;53.800;15.956;2023-04-28T03:07:16;100654.54;;;1.98;67.14
67987;BME280;54767;53.800;15.956;2023-04-28T03:09:43;100653.88;;;1.99;67.18
67987;BME280;54767;53.800;15.956;2023-04-28T03:12:11;100650.91;;;1.98;67.27
67987;BME280;54767;53.800;15.956;2023-04-28T03:14:38;100654.95;;;2.00;67.33
67987;BME280;54767;53.800;15.956;2023-04-28T03:17:05;100652.98;;;2.02;67.09
67987;BME280;54767;53.800;15.956;2023-04-28T03:19:31;100654.02;;;2.06;66.93
67987;BME280;54767;53.800;15.956;2023-04-28T03:21:58;100652.08;;;2.09;67.03
67987;BME280;54767;53.800;15.956;2023-04-28T03:24:25;100649.26;;;2.12;67.08
67987;BME280;54767;53.800;15.956;2023-04-28T03:26:52;100651.55;;;2.13;67.16
67987;BME280;54767;53.800;15.956;2023-04-28T03:29:18;100649.89;;;2.15;67.25
67987;BME280;54767;53.800;15.956;2023-04-28T03:31:45;100648.71;;;2.15;67.15
67987;BME280;54767;53.800;15.956;2023-04-28T03:34:12;100646.48;;;2.16;67.43
67987;BME280;54767;53.800;15.956;2023-04-28T03:36:40;100646.65;;;2.16;67.39
67987;BME280;54767;53.800;15.956;2023-04-28T03:39:07;100644.93;;;2.16;67.26
67987;BME280;54767;53.800;15.956;2023-04-28T03:41:35;100649.10;;;2.17;67.32
67987;BME280;54767;53.800;15.956;2023-04-28T03:44:01;100650.81;;;2.20;67.52
67987;BME280;54767;53.800;15.956;2023-04-28T03:46:28;100648.06;;;2.25;67.70
67987;BME280;54767;53.800;15.956;2023-04-28T03:48:55;100646.71;;;2.30;67.61
67987;BME280;54767;53.800;15.956;2023-04-28T03:51:22;100645.13;;;2.33;67.58
67987;BME280;54767;53.800;15.956;2023-04-28T03:53:49;100650.40;;;2.35;67.48
67987;BME280;54767;53.800;15.956;2023-04-28T03:56:15;100658.40;;;2.36;67.44
67987;BME280;54767;53.800;15.956;2023-04-28T03:58:42;100660.35;;;2.38;67.45
67987;BME280;54767;53.800;15.956;2023-04-28T04:01:09;100657.64;;;2.39;67.47
67987;BME280;54767;53.800;15.956;2023-04-28T04:03:36;100655.83;;;2.41;67.54
67987;BME280;54767;53.800;15.956;2023-04-28T04:06:04;100657.08;;;2.42;67.61
67987;BME280;54767;53.800;15.956;2023-04-28T04:08:31;100659.41;;;2.43;67.77
67987;BME280;54767;53.800;15.956;2023-04-28T04:10:58;100658.48;;;2.46;67.50
67987;BME280;54767;53.800;15.956;2023-04-28T04:13:25;100662.23;;;2.50;67.65
67987;BME280;54767;53.800;15.956;2023-04-28T04:15:52;100656.22;;;2.55;67.54
67987;BME280;54767;53.800;15.956;2023-04-28T04:18:19;100656.90;;;2.59;67.47
67987;BME280;54767;53.800;15.956;2023-04-28T04:20:46;100656.06;;;2.64;67.63
67987;BME280;54767;53.800;15.956;2023-04-28T04:23:15;100660.55;;;2.68;67.52
67987;BME280;54767;53.800;15.956;2023-04-28T04:25:42;100660.30;;;2.70;67.40
67987;BME280;54767;53.800;15.956;2023-04-28T04:28:09;100661.48;;;2.74;67.36
67987;BME280;54767;53.800;15.956;2023-04-28T04:30:36;100661.42;;;2.77;67.65
67987;BME280;54767;53.800;15.956;2023-04-28T04:33:02;100659.58;;;2.78;67.69
67987;BME280;54767;53.800;15.956;2023-04-28T04:35:30;100655.29;;;2.78;68.04
67987;BME280;54767;53.800;15.956;2023-04-28T04:37:56;100657.46;;;2.81;67.97
67987;BME280;54767;53.800;15.956;2023-04-28T04:40:23;100650.69;;;2.85;68.07
67987;BME280;54767;53.800;15.956;2023-04-28T04:42:50;100648.52;;;2.91;68.06
67987;BME280;54767;53.800;15.956;2023-04-28T04:45:17;100649.59;;;2.97;68.23
67987;BME280;54767;53.800;15.956;2023-04-28T04:47:44;100650.48;;;3.02;68.03
67987;BME280;54767;53.800;15.956;2023-04-28T04:50:11;100654.16;;;3.08;67.87
67987;BME280;54767;53.800;15.956;2023-04-28T04:52:37;100654.08;;;3.14;68.26
67987;BME280;54767;53.800;15.956;2023-04-28T04:55:05;100658.60;;;3.20;68.32
67987;BME280;54767;53.800;15.956;2023-04-28T04:57:32;100657.52;;;3.23;68.64
67987;BME280;54767;53.800;15.956;2023-04-28T04:59:59;100654.33;;;3.25;69.02
67987;BME280;54767;53.800;15.956;2023-04-28T05:02:26;100657.60;;;3.29;69.18
67987;BME280;54767;53.800;15.956;2023-04-28T05:04:53;100651.61;;;3.36;69.13
67987;BME280;54767;53.800;15.956;2023-04-28T05:07:28;100649.68;;;3.44;68.96
67987;BME280;54767;53.800;15.956;2023-04-28T05:09:54;100648.77;;;3.52;68.85
67987;BME280;54767;53.800;15.956;2023-04-28T05:12:21;100646.64;;;3.60;69.40
67987;BME280;54767;53.800;15.956;2023-04-28T05:14:48;100643.42;;;3.67;69.52
67987;BME280;54767;53.800;15.956;2023-04-28T05:17:14;100644.02;;;3.74;69.34
67987;BME280;54767;53.800;15.956;2023-04-28T05:19:41;100643.91;;;3.81;69.11
67987;BME280;54767;53.800;15.956;2023-04-28T05:22:08;100647.14;;;3.89;69.29
67987;BME280;54767;53.800;15.956;2023-04-28T05:24:35;100646.28;;;3.99;69.28
67987;BME280;54767;53.800;15.956;2023-04-28T05:27:01;100638.59;;;4.12;69.55
67987;BME280;54767;53.800;15.956;2023-04-28T05:29:28;100636.30;;;4.26;69.58
67987;BME280;54767;53.800;15.956;2023-04-28T05:31:55;100636.21;;;4.44;69.51
67987;BME280;54767;53.800;15.956;2023-04-28T05:34:22;100636.50;;;4.63;69.75
67987;BME280;54767;53.800;15.956;2023-04-28T05:36:49;100636.40;;;4.82;69.10
67987;BME280;54767;53.800;15.956;2023-04-28T05:39:17;100637.56;;;4.96;68.91
67987;BME280;54767;53.800;15.956;2023-04-28T05:41:44;100642.04;;;5.12;68.60
67987;BME280;54767;53.800;15.956;2023-04-28T05:44:10;100634.48;;;5.27;68.20
67987;BME280;54767;53.800;15.956;2023-04-28T05:46:37;100633.89;;;5.42;68.42
67987;BME280;54767;53.800;15.956;2023-04-28T05:49:04;100634.47;;;5.56;67.86
67987;BME280;54767;53.800;15.956;2023-04-28T05:51:31;100629.88;;;5.72;68.14
67987;BME280;54767;53.800;15.956;2023-04-28T05:53:59;100627.66;;;5.92;68.47
67987;BME280;54767;53.800;15.956;2023-04-28T05:56:26;100630.17;;;6.13;68.59
67987;BME280;54767;53.800;15.956;2023-04-28T05:58:53;100626.90;;;6.50;69.98
67987;BME280;54767;53.800;15.956;2023-04-28T06:01:21;100630.30;;;7.12;69.74
67987;BME280;54767;53.800;15.956;2023-04-28T06:03:48;100633.77;;;7.52;68.33
67987;BME280;54767;53.800;15.956;2023-04-28T06:06:15;100626.70;;;7.82;67.49
67987;BME280;54767;53.800;15.956;2023-04-28T06:08:42;100623.14;;;8.06;66.33
67987;BME280;54767;53.800;15.956;2023-04-28T06:11:09;100618.25;;;8.25;65.40
67987;BME280;54767;53.800;15.956;2023-04-28T06:13:36;100619.98;;;8.43;64.90
67987;BME280;54767;53.800;15.956;2023-04-28T06:16:03;100622.96;;;8.54;64.37
67987;BME280;54767;53.800;15.956;2023-04-28T06:18:29;100621.61;;;8.58;63.57
67987;BME280;54767;53.800;15.956;2023-04-28T06:20:59;100620.51;;;8.54;62.51
67987;BME280;54767;53.800;15.956;2023-04-28T06:23:26;100621.80;;;8.47;62.04
67987;BME280;54767;53.800;15.956;2023-04-28T06:25:53;100617.51;;;8.41;61.49
67987;BME280;54767;53.800;15.956;2023-04-28T06:28:19;100615.91;;;8.31;61.17
67987;BME280;54767;53.800;15.956;2023-04-28T06:30:46;100613.69;;;8.23;61.14
67987;BME280;54767;53.800;15.956;2023-04-28T06:33:13;100614.46;;;8.18;61.04
67987;BME280;54767;53.800;15.956;2023-04-28T06:35:40;100615.94;;;8.13;60.54
67987;BME280;54767;53.800;15.956;2023-04-28T06:38:06;100618.30;;;8.09;60.22
67987;BME280;54767;53.800;15.956;2023-04-28T06:40:33;100615.61;;;8.05;60.23
67987;BME280;54767;53.800;15.956;2023-04-28T06:43:00;100610.77;;;8.07;60.37
67987;BME280;54767;53.800;15.956;2023-04-28T06:45:27;100612.41;;;8.10;60.13
67987;BME280;54767;53.800;15.956;2023-04-28T06:47:54;100607.98;;;8.17;60.74
67987;BME280;54767;53.800;15.956;2023-04-28T06:50:22;100610.77;;;8.26;60.01
67987;BME280;54767;53.800;15.956;2023-04-28T06:52:49;100605.73;;;8.27;59.66
67987;BME280;54767;53.800;15.956;2023-04-28T06:55:16;100611.22;;;8.32;59.56
67987;BME280;54767;53.800;15.956;2023-04-28T06:57:43;100610.95;;;8.37;59.34
67987;BME280;54767;53.800;15.956;2023-04-28T07:00:10;100610.20;;;8.42;59.19
67987;BME280;54767;53.800;15.956;2023-04-28T07:02:38;100611.30;;;8.45;58.63
67987;BME280;54767;53.800;15.956;2023-04-28T07:05:05;100609.05;;;8.46;58.12
67987;BME280;54767;53.800;15.956;2023-04-28T07:07:32;100610.80;;;8.47;57.76
67987;BME280;54767;53.800;15.956;2023-04-28T07:09:59;100609.61;;;8.48;57.69
67987;BME280;54767;53.800;15.956;2023-04-28T07:12:26;100610.73;;;8.54;57.86
67987;BME280;54767;53.800;15.956;2023-04-28T07:14:53;100607.14;;;8.57;57.67
67987;BME280;54767;53.800;15.956;2023-04-28T07:17:21;100610.71;;;8.62;57.61
67987;BME280;54767;53.800;15.956;2023-04-28T07:19:48;100608.14;;;8.66;57.13
67987;BME280;54767;53.800;15.956;2023-04-28T07:22:16;100607.66;;;8.69;56.72
67987;BME280;54767;53.800;15.956;2023-04-28T07:24:43;100603.52;;;8.70;56.23
67987;BME280;54767;53.800;15.956;2023-04-28T07:27:10;100600.21;;;8.72;56.44
67987;BME280;54767;53.800;15.956;2023-04-28T07:29:37;100601.85;;;8.76;56.22
67987;BME280;54767;53.800;15.956;2023-04-28T07:32:04;100602.92;;;8.78;55.66
67987;BME280;54767;53.800;15.956;2023-04-28T07:34:34;100598.95;;;8.81;55.97
67987;BME280;54767;53.800;15.956;2023-04-28T07:37:02;100596.60;;;8.87;55.89
67987;BME280;54767;53.800;15.956;2023-04-28T07:39:44;100593.54;;;8.92;55.66
67987;BME280;54767;53.800;15.956;2023-04-28T07:42:11;100593.63;;;8.99;55.69
67987;BME280;54767;53.800;15.956;2023-04-28T07:44:41;100588.48;;;9.05;55.71
67987;BME280;54767;53.800;15.956;2023-04-28T07:47:09;100586.09;;;9.10;55.51
67987;BME280;54767;53.800;15.956;2023-04-28T07:49:36;100582.15;;;9.16;55.28
67987;BME280;54767;53.800;15.956;2023-04-28T07:52:03;100577.82;;;9.18;54.25
67987;BME280;54767;53.800;15.956;2023-04-28T07:54:30;100581.15;;;9.18;53.87
67987;BME280;54767;53.800;15.956;2023-04-28T07:56:57;100579.38;;;9.17;53.22
67987;BME280;54767;53.800;15.956;2023-04-28T07:59:24;100579.71;;;9.15;53.09
67987;BME280;54767;53.800;15.956;2023-04-28T08:01:51;100579.70;;;9.15;52.98
67987;BME280;54767;53.800;15.956;2023-04-28T08:04:18;100577.31;;;9.19;53.17
67987;BME280;54767;53.800;15.956;2023-04-28T08:06:45;100576.47;;;9.21;52.80
67987;BME280;54767;53.800;15.956;2023-04-28T08:09:14;100577.73;;;9.25;52.68
67987;BME280;54767;53.800;15.956;2023-04-28T08:11:41;100575.65;;;9.25;52.29
67987;BME280;54767;53.800;15.956;2023-04-28T08:14:08;100577.23;;;9.25;51.66
67987;BME280;54767;53.800;15.956;2023-04-28T08:16:37;100569.66;;;9.22;51.46
67987;BME280;54767;53.800;15.956;2023-04-28T08:19:06;100570.02;;;9.22;51.31
67987;BME280;54767;53.800;15.956;2023-04-28T08:21:33;100570.55;;;9.23;51.02
67987;BME280;54767;53.800;15.956;2023-04-28T08:24:00;100572.67;;;9.25;51.34
67987;BME280;54767;53.800;15.956;2023-04-28T08:26:27;100569.03;;;9.27;51.07
67987;BME280;54767;53.800;15.956;2023-04-28T08:28:54;100564.67;;;9.27;50.48
67987;BME280;54767;53.800;15.956;2023-04-28T08:31:24;100567.16;;;9.31;50.85
67987;BME280;54767;53.800;15.956;2023-04-28T08:33:50;100570.88;;;9.36;50.87
67987;BME280;54767;53.800;15.956;2023-04-28T08:36:17;100568.84;;;9.39;50.55
67987;BME280;54767;53.800;15.956;2023-04-28T08:38:44;100570.94;;;9.40;50.16
67987;BME280;54767;53.800;15.956;2023-04-28T08:41:14;100568.14;;;9.40;50.01
67987;BME280;54767;53.800;15.956;2023-04-28T08:43:41;100563.27;;;9.41;49.95
67987;BME280;54767;53.800;15.956;2023-04-28T08:46:09;100562.11;;;9.46;49.71
67987;BME280;54767;53.800;15.956;2023-04-28T08:48:48;100567.92;;;9.51;49.93
67987;BME280;54767;53.800;15.956;2023-04-28T08:51:26;100565.84;;;9.53;49.68
67987;BME280;54767;53.800;15.956;2023-04-28T08:54:01;100557.67;;;9.56;49.75
67987;BME280;54767;53.800;15.956;2023-04-28T08:56:50;100558.94;;;9.61;49.68
67987;BME280;54767;53.800;15.956;2023-04-28T08:59:17;100555.20;;;9.70;49.90
67987;BME280;54767;53.800;15.956;2023-04-28T09:01:47;100556.35;;;9.80;49.57
67987;BME280;54767;53.800;15.956;2023-04-28T09:04:16;100554.84;;;9.87;49.56
67987;BME280;54767;53.800;15.956;2023-04-28T09:06:44;100552.19;;;10.01;49.72
67987;BME280;54767;53.800;15.956;2023-04-28T09:09:27;100551.06;;;10.12;49.36
67987;BME280;54767;53.800;15.956;2023-04-28T09:12:03;100552.70;;;10.19;48.92
67987;BME280;54767;53.800;15.956;2023-04-28T09:14:31;100548.19;;;10.23;48.06
67987;BME280;54767;53.800;15.956;2023-04-28T09:16:59;100549.08;;;10.26;48.00
67987;BME280;54767;53.800;15.956;2023-04-28T09:19:33;100547.95;;;10.34;47.80
67987;BME280;54767;53.800;15.956;2023-04-28T09:22:02;100545.44;;;10.45;47.81
67987;BME280;54767;53.800;15.956;2023-04-28T09:24:50;100543.55;;;10.52;47.55
67987;BME280;54767;53.800;15.956;2023-04-28T09:27:25;100540.45;;;10.60;46.69
67987;BME280;54767;53.800;15.956;2023-04-28T09:29:53;100541.38;;;10.69;46.27
67987;BME280;54767;53.800;15.956;2023-04-28T09:32:21;100539.67;;;10.75;46.31
67987;BME280;54767;53.800;15.956;2023-04-28T09:34:51;100538.66;;;10.81;46.58
67987;BME280;54767;53.800;15.956;2023-04-28T09:37:22;100533.77;;;10.84;46.79
67987;BME280;54767;53.800;15.956;2023-04-28T09:39:53;100536.77;;;10.86;46.37
67987;BME280;54767;53.800;15.956;2023-04-28T09:44:58;100532.77;;;10.91;46.12
67987;BME280;54767;53.800;15.956;2023-04-28T09:47:25;100529.98;;;10.94;46.11
67987;BME280;54767;53.800;15.956;2023-04-28T09:49:53;100522.14;;;11.02;46.54
67987;BME280;54767;53.800;15.956;2023-04-28T09:52:22;100518.68;;;11.11;46.49
67987;BME280;54767;53.800;15.956;2023-04-28T09:54:51;100509.96;;;11.22;46.68
67987;BME280;54767;53.800;15.956;2023-04-28T09:57:19;100500.36;;;11.35;46.55
67987;BME280;54767;53.800;15.956;2023-04-28T09:59:49;100506.19;;;11.48;46.98
67987;BME280;54767;53.800;15.956;2023-04-28T10:02:18;100506.55;;;11.55;46.18
67987;BME280;54767;53.800;15.956;2023-04-28T10:05:07;100506.93;;;11.66;46.25
67987;BME280;54767;53.800;15.956;2023-04-28T10:07:35;100508.16;;;11.73;46.12
67987;BME280;54767;53.800;15.956;2023-04-28T10:10:02;100503.27;;;11.81;45.79
67987;BME280;54767;53.800;15.956;2023-04-28T10:12:31;100504.71;;;11.90;45.83
67987;BME280;54767;53.800;15.956;2023-04-28T10:14:58;100500.34;;;11.97;45.73
67987;BME280;54767;53.800;15.956;2023-04-28T10:17:25;100502.09;;;12.06;45.60
67987;BME280;54767;53.800;15.956;2023-04-28T10:19:54;100499.28;;;12.14;46.04
67987;BME280;54767;53.800;15.956;2023-04-28T10:25:28;100491.20;;;12.30;44.91
67987;BME280;54767;53.800;15.956;2023-04-28T10:27:58;100490.85;;;12.35;43.88
67987;BME280;54767;53.800;15.956;2023-04-28T10:30:26;100483.81;;;12.37;44.47
67987;BME280;54767;53.800;15.956;2023-04-28T10:35:43;100475.73;;;12.42;43.79
67987;BME280;54767;53.800;15.956;2023-04-28T10:38:12;100469.05;;;12.46;43.82
67987;BME280;54767;53.800;15.956;2023-04-28T10:40:42;100461.52;;;12.47;43.74
67987;BME280;54767;53.800;15.956;2023-04-28T10:43:11;100460.10;;;12.52;43.67
67987;BME280;54767;53.800;15.956;2023-04-28T10:46:05;100457.63;;;12.58;43.44
67987;BME280;54767;53.800;15.956;2023-04-28T10:56:26;100443.84;;;12.81;40.48
67987;BME280;54767;53.800;15.956;2023-04-28T10:58:55;100439.66;;;12.76;40.54
67987;BME280;54767;53.800;15.956;2023-04-28T11:01:32;100440.00;;;12.79;40.97
67987;BME280;54767;53.800;15.956;2023-04-28T11:04:07;100440.35;;;12.79;40.88
67987;BME280;54767;53.800;15.956;2023-04-28T11:06:42;100437.86;;;12.85;40.85
67987;BME280;54767;53.800;15.956;2023-04-28T11:11:38;100434.46;;;13.01;40.98
67987;BME280;54767;53.800;15.956;2023-04-28T11:16:49;100426.47;;;13.19;42.52
67987;BME280;54767;53.800;15.956;2023-04-28T11:19:24;100428.71;;;13.30;42.73
67987;BME280;54767;53.800;15.956;2023-04-28T11:21:53;100431.63;;;13.42;43.31
67987;BME280;54767;53.800;15.956;2023-04-28T11:24:22;100432.78;;;13.52;42.57
67987;BME280;54767;53.800;15.956;2023-04-28T11:26:52;100432.40;;;13.57;41.75
67987;BME280;54767;53.800;15.956;2023-04-28T11:29:36;100433.98;;;13.58;41.19
67987;BME280;54767;53.800;15.956;2023-04-28T11:32:08;100431.33;;;13.59;41.24
67987;BME280;54767;53.800;15.956;2023-04-28T11:34:36;100431.66;;;13.63;40.59
67987;BME280;54767;53.800;15.956;2023-04-28T11:37:03;100432.58;;;13.58;38.16
67987;BME280;54767;53.800;15.956;2023-04-28T11:39:33;100428.91;;;13.53;39.38
67987;BME280;54767;53.800;15.956;2023-04-28T11:42:02;100433.42;;;13.60;40.98
67987;BME280;54767;53.800;15.956;2023-04-28T11:44:35;100431.06;;;13.71;41.50
67987;BME280;54767;53.800;15.956;2023-04-28T11:47:03;100423.77;;;13.81;40.97
67987;BME280;54767;53.800;15.956;2023-04-28T11:49:41;100425.13;;;13.87;40.33
67987;BME280;54767;53.800;15.956;2023-04-28T11:52:08;100427.73;;;13.93;40.50
67987;BME280;54767;53.800;15.956;2023-04-28T11:54:36;100423.79;;;13.99;40.84
67987;BME280;54767;53.800;15.956;2023-04-28T11:57:04;100423.18;;;14.09;40.93
67987;BME280;54767;53.800;15.956;2023-04-28T11:59:33;100420.48;;;14.14;41.07
67987;BME280;54767;53.800;15.956;2023-04-28T12:02:05;100418.16;;;14.18;40.51
67987;BME280;54767;53.800;15.956;2023-04-28T12:04:35;100417.25;;;14.21;40.55
67987;BME280;54767;53.800;15.956;2023-04-28T12:07:07;100412.09;;;14.26;40.89
67987;BME280;54767;53.800;15.956;2023-04-28T12:09:37;100404.30;;;14.31;40.82
67987;BME280;54767;53.800;15.956;2023-04-28T12:12:07;100405.83;;;14.36;40.48
67987;BME280;54767;53.800;15.956;2023-04-28T12:17:26;100402.81;;;14.38;37.96
67987;BME280;54767;53.800;15.956;2023-04-28T12:19:54;100398.36;;;14.26;36.66
67987;BME280;54767;53.800;15.956;2023-04-28T12:22:22;100397.96;;;14.14;36.33
67987;BME280;54767;53.800;15.956;2023-04-28T12:25:05;100393.58;;;14.13;38.05
67987;BME280;54767;53.800;15.956;2023-04-28T12:27:35;100389.10;;;14.20;38.46
67987;BME280;54767;53.800;15.956;2023-04-28T12:32:45;100393.87;;;14.34;39.70
67987;BME280;54767;53.800;15.956;2023-04-28T12:35:12;100385.70;;;14.40;39.78
67987;BME280;54767;53.800;15.956;2023-04-28T12:37:40;100384.04;;;14.47;39.97
67987;BME280;54767;53.800;15.956;2023-04-28T12:40:09;100374.49;;;14.52;39.09
67987;BME280;54767;53.800;15.956;2023-04-28T12:42:36;100365.86;;;14.54;38.90
67987;BME280;54767;53.800;15.956;2023-04-28T12:45:03;100363.00;;;14.58;39.22
67987;BME280;54767;53.800;15.956;2023-04-28T12:47:31;100355.55;;;14.62;39.19
67987;BME280;54767;53.800;15.956;2023-04-28T12:49:58;100355.14;;;14.65;39.21
67987;BME280;54767;53.800;15.956;2023-04-28T12:52:25;100349.11;;;14.69;39.39
67987;BME280;54767;53.800;15.956;2023-04-28T12:54:51;100345.52;;;14.74;39.33
67987;BME280;54767;53.800;15.956;2023-04-28T12:57:19;100347.58;;;14.79;38.93
67987;BME280;54767;53.800;15.956;2023-04-28T12:59:46;100351.58;;;14.82;39.20
67987;BME280;54767;53.800;15.956;2023-04-28T13:02:14;100347.83;;;14.86;39.14
67987;BME280;54767;53.800;15.956;2023-04-28T13:04:41;100345.50;;;14.88;39.00
67987;BME280;54767;53.800;15.956;2023-04-28T13:07:15;100347.39;;;14.91;38.57
67987;BME280;54767;53.800;15.956;2023-04-28T13:09:42;100333.27;;;14.94;38.35
67987;BME280;54767;53.800;15.956;2023-04-28T13:12:10;100334.45;;;14.98;38.29
67987;BME280;54767;53.800;15.956;2023-04-28T13:14:40;100325.95;;;15.00;38.19
67987;BME280;54767;53.800;15.956;2023-04-28T13:17:07;100320.23;;;15.05;37.95
67987;BME280;54767;53.800;15.956;2023-04-28T13:19:35;100319.29;;;15.09;38.31